sensor_id;sensor_type;location;lat;lon;timestamp;temperature;humidity
8633;DHT22;4354;49.832;10.746;2022-12-08T00:00:51;1.90;99.90
8633;DHT22;4354;49.832;10.746;2022-12-08T00:03:18;2.00;99.90
8633;DHT22;4354;49.832;10.746;2022-12-08T00:05:46;2.00;99.90
8633;DHT22;4354;49.832;10.746;2022-12-08T00:08:32;2.10;99.90
8633;DHT22;4354;49.832;10.746;2022-12-08T00:11:19;2.10;99.90
8633;DHT22;4354;49.832;10.746;2022-12-08T00:13:45;2.10;99.90
8633;DHT22;4354;49.832;10.746;2022-12-08T00:16:12;2.10;99.90
8633;DHT22;4354;49.832;10.746;2022-12-08T00:18:39;2.10;99.90
8633;DHT22;4354;49.832;10.746;2022-12-08T00:21:06;2.10;99.90
8633;DHT22;4354;49.832;10.746;2022-12-08T00:23:33;2.20;99.90
8633;DHT22;4354;49.832;10.746;2022-12-08T00:26:03;2.20;99.90
8633;DHT22;4354;49.832;10.746;2022-12-08T00:28:31;2.20;99.90
8633;DHT22;4354;49.832;10.746;2022-12-08T00:30:59;2.20;99.90
8633;DHT22;4354;49.832;10.746;2022-12-08T00:33:29;2.20;99.90
8633;DHT22;4354;49.832;10.746;2022-12-08T00:35:55;2.20;99.90
8633;DHT22;4354;49.832;10.746;2022-12-08T00:38:22;2.10;99.90
8633;DHT22;4354;49.832;10.746;2022-12-08T00:40:49;2.10;99.90
8633;DHT22;4354;49.832;10.746;2022-12-08T00:43:16;2.00;99.90
8633;DHT22;4354;49.832;10.746;2022-12-08T00:45:43;2.00;99.90
8633;DHT22;4354;49.832;10.746;2022-12-08T00:48:10;1.90;99.90
8633;DHT22;4354;49.832;10.746;2022-12-08T00:50:37;1.90;99.90
8633;DHT22;4354;49.832;10.746;2022-12-08T00:53:03;1.90;99.90
8633;DHT22;4354;49.832;10.746;2022-12-08T00:55:30;1.80;99.90
8633;DHT22;4354;49.832;10.746;2022-12-08T00:57:57;1.70;99.90
8633;DHT22;4354;49.832;10.746;2022-12-08T01:00:23;1.60;99.90
8633;DHT22;4354;49.832;10.746;2022-12-08T01:02:50;1.50;99.90
8633;DHT22;4354;49.832;10.746;2022-12-08T01:05:17;1.40;99.90
8633;DHT22;4354;49.832;10.746;2022-12-08T01:07:44;1.40;99.90
8633;DHT22;4354;49.832;10.746;2022-12-08T01:10:11;1.40;99.90
8633;DHT22;4354;49.832;10.746;2022-12-08T01:12:37;1.40;99.90
8633;DHT22;4354;49.832;10.746;2022-12-08T01:15:04;1.40;99.90
8633;DHT22;4354;49.832;10.746;2022-12-08T01:17:31;1.40;99.90
8633;DHT22;4354;49.832;10.746;2022-12-08T01:19:58;1.40;99.90
8633;DHT22;4354;49.832;10.746;2022-12-08T01:22:25;1.40;99.90
8633;DHT22;4354;49.832;10.746;2022-12-08T01:24:52;1.40;99.90
8633;DHT22;4354;49.832;10.746;2022-12-08T01:27:18;1.40;99.90
8633;DHT22;4354;49.832;10.746;2022-12-08T01:29:45;1.40;99.90
8633;DHT22;4354;49.832;10.746;2022-12-08T01:32:12;1.50;99.90
8633;DHT22;4354;49.832;10.746;2022-12-08T01:34:38;1.50;99.90
8633;DHT22;4354;49.832;10.746;2022-12-08T01:37:05;1.60;99.90
8633;DHT22;4354;49.832;10.746;2022-12-08T01:39:32;1.60;99.90
8633;DHT22;4354;49.832;10.746;2022-12-08T01:42:00;1.60;99.90
8633;DHT22;4354;49.832;10.746;2022-12-08T01:46:53;1.70;99.90
8633;DHT22;4354;49.832;10.746;2022-12-08T01:49:31;1.70;99.90
8633;DHT22;4354;49.832;10.746;2022-12-08T01:52:15;1.80;99.90
8633;DHT22;4354;49.832;10.746;2022-12-08T01:54:50;1.80;99.90
8633;DHT22;4354;49.832;10.746;2022-12-08T01:57:23;1.80;99.90
8633;DHT22;4354;49.832;10.746;2022-12-08T01:59:58;1.80;99.90
8633;DHT22;4354;49.832;10.746;2022-12-08T02:02:31;1.80;99.90
8633;DHT22;4354;49.832;10.746;2022-12-08T02:05:00;1.90;99.90
8633;DHT22;4354;49.832;10.746;2022-12-08T02:07:28;1.90;99.90
8633;DHT22;4354;49.832;10.746;2022-12-08T02:09:56;1.90;99.90
8633;DHT22;4354;49.832;10.746;2022-12-08T02:12:23;1.90;99.90
8633;DHT22;4354;49.832;10.746;2022-12-08T02:14:50;1.90;99.90
8633;DHT22;4354;49.832;10.746;2022-12-08T02:20:12;1.90;99.90
8633;DHT22;4354;49.832;10.746;2022-12-08T02:36:25;2.10;99.90
8633;DHT22;4354;49.832;10.746;2022-12-08T02:39:24;2.10;99.90
8633;DHT22;4354;49.832;10.746;2022-12-08T02:42:01;2.10;99.90
8633;DHT22;4354;49.832;10.746;2022-12-08T02:44:40;2.20;99.90
8633;DHT22;4354;49.832;10.746;2022-12-08T02:47:17;2.20;99.90
8633;DHT22;4354;49.832;10.746;2022-12-08T02:49:45;2.20;99.90
8633;DHT22;4354;49.832;10.746;2022-12-08T02:54:46;2.20;99.90
8633;DHT22;4354;49.832;10.746;2022-12-08T02:57:51;2.20;99.90
8633;DHT22;4354;49.832;10.746;2022-12-08T03:00:14;2.20;99.90
8633;DHT22;4354;49.832;10.746;2022-12-08T03:03:08;2.20;99.90
8633;DHT22;4354;49.832;10.746;2022-12-08T03:06:03;2.30;99.90
8633;DHT22;4354;49.832;10.746;2022-12-08T03:08:54;2.30;99.90
8633;DHT22;4354;49.832;10.746;2022-12-08T03:11:31;2.30;99.90
8633;DHT22;4354;49.832;10.746;2022-12-08T03:14:02;2.30;99.90
8633;DHT22;4354;49.832;10.746;2022-12-08T03:16:31;2.30;99.90
8633;DHT22;4354;49.832;10.746;2022-12-08T03:19:20;2.30;99.90
8633;DHT22;4354;49.832;10.746;2022-12-08T03:21:53;2.30;99.90
8633;DHT22;4354;49.832;10.746;2022-12-08T03:24:34;2.30;99.90
8633;DHT22;4354;49.832;10.746;2022-12-08T03:27:04;2.30;99.90
8633;DHT22;4354;49.832;10.746;2022-12-08T03:29:31;2.40;99.90
8633;DHT22;4354;49.832;10.746;2022-12-08T03:32:13;2.40;99.90
8633;DHT22;4354;49.832;10.746;2022-12-08T03:34:43;2.40;99.90
8633;DHT22;4354;49.832;10.746;2022-12-08T03:37:12;2.40;99.90
8633;DHT22;4354;49.832;10.746;2022-12-08T03:39:40;2.40;99.90
8633;DHT22;4354;49.832;10.746;2022-12-08T03:42:07;2.40;99.90
8633;DHT22;4354;49.832;10.746;2022-12-08T03:44:34;2.40;99.90
8633;DHT22;4354;49.832;10.746;2022-12-08T03:47:00;2.40;99.90
8633;DHT22;4354;49.832;10.746;2022-12-08T03:49:27;2.40;99.90
8633;DHT22;4354;49.832;10.746;2022-12-08T03:51:54;2.40;99.90
8633;DHT22;4354;49.832;10.746;2022-12-08T03:54:20;2.40;99.90
8633;DHT22;4354;49.832;10.746;2022-12-08T03:56:47;2.40;99.90
8633;DHT22;4354;49.832;10.746;2022-12-08T03:59:14;2.40;99.90
8633;DHT22;4354;49.832;10.746;2022-12-08T04:01:41;2.40;99.90
8633;DHT22;4354;49.832;10.746;2022-12-08T04:04:08;2.40;99.90
8633;DHT22;4354;49.832;10.746;2022-12-08T04:06:34;2.40;99.90
8633;DHT22;4354;49.832;10.746;2022-12-08T04:09:01;2.40;99.90
8633;DHT22;4354;49.832;10.746;2022-12-08T04:11:28;2.40;99.90
8633;DHT22;4354;49.832;10.746;2022-12-08T04:13:55;2.40;99.90
8633;DHT22;4354;49.832;10.746;2022-12-08T04:16:23;2.40;99.90
8633;DHT22;4354;49.832;10.746;2022-12-08T04:18:51;2.40;99.90
8633;DHT22;4354;49.832;10.746;2022-12-08T04:21:18;2.40;99.90
8633;DHT22;4354;49.832;10.746;2022-12-08T04:23:46;2.40;99.90
8633;DHT22;4354;49.832;10.746;2022-12-08T04:26:13;2.40;99.90
8633;DHT22;4354;49.832;10.746;2022-12-08T04:28:40;2.40;99.90
8633;DHT22;4354;49.832;10.746;2022-12-08T04:31:07;2.40;99.90
8633;DHT22;4354;49.832;10.746;2022-12-08T04:33:34;2.40;99.90
8633;DHT22;4354;49.832;10.746;2022-12-08T04:36:02;2.40;99.90
8633;DHT22;4354;49.832;10.746;2022-12-08T04:38:29;2.40;99.90
8633;DHT22;4354;49.832;10.746;2022-12-08T04:40:56;2.40;99.90
8633;DHT22;4354;49.832;10.746;2022-12-08T04:43:23;2.40;99.90
8633;DHT22;4354;49.832;10.746;2022-12-08T04:45:50;2.40;99.90
8633;DHT22;4354;49.832;10.746;2022-12-08T04:48:17;2.40;99.90
8633;DHT22;4354;49.832;10.746;2022-12-08T04:50:44;2.50;99.90
8633;DHT22;4354;49.832;10.746;2022-12-08T04:53:12;2.50;99.90
8633;DHT22;4354;49.832;10.746;2022-12-08T04:55:41;2.50;99.90
8633;DHT22;4354;49.832;10.746;2022-12-08T04:58:13;2.50;99.90
8633;DHT22;4354;49.832;10.746;2022-12-08T05:00:41;2.40;99.90
8633;DHT22;4354;49.832;10.746;2022-12-08T05:03:09;2.40;99.90
8633;DHT22;4354;49.832;10.746;2022-12-08T05:05:36;2.40;99.90
8633;DHT22;4354;49.832;10.746;2022-12-08T05:08:03;2.40;99.90
8633;DHT22;4354;49.832;10.746;2022-12-08T05:10:31;2.40;99.90
8633;DHT22;4354;49.832;10.746;2022-12-08T05:12:58;2.40;99.90
8633;DHT22;4354;49.832;10.746;2022-12-08T05:15:25;2.40;99.90
8633;DHT22;4354;49.832;10.746;2022-12-08T05:17:52;2.40;99.90
8633;DHT22;4354;49.832;10.746;2022-12-08T05:20:19;2.40;99.90
8633;DHT22;4354;49.832;10.746;2022-12-08T05:22:46;2.40;99.90
8633;DHT22;4354;49.832;10.746;2022-12-08T05:25:13;2.40;99.90
8633;DHT22;4354;49.832;10.746;2022-12-08T05:27:40;2.30;99.90
8633;DHT22;4354;49.832;10.746;2022-12-08T05:30:07;2.30;99.90
8633;DHT22;4354;49.832;10.746;2022-12-08T05:32:34;2.30;99.90
8633;DHT22;4354;49.832;10.746;2022-12-08T05:35:01;2.30;99.90
8633;DHT22;4354;49.832;10.746;2022-12-08T05:37:27;2.30;99.90
8633;DHT22;4354;49.832;10.746;2022-12-08T05:39:54;2.30;99.90
8633;DHT22;4354;49.832;10.746;2022-12-08T05:42:21;2.30;99.90
8633;DHT22;4354;49.832;10.746;2022-12-08T05:44:50;2.30;99.90
8633;DHT22;4354;49.832;10.746;2022-12-08T05:47:17;2.30;99.90
8633;DHT22;4354;49.832;10.746;2022-12-08T05:49:44;2.30;99.90
8633;DHT22;4354;49.832;10.746;2022-12-08T05:52:11;2.30;99.90
8633;DHT22;4354;49.832;10.746;2022-12-08T05:54:38;2.30;99.90
8633;DHT22;4354;49.832;10.746;2022-12-08T05:57:04;2.30;99.90
8633;DHT22;4354;49.832;10.746;2022-12-08T05:59:31;2.30;99.90
8633;DHT22;4354;49.832;10.746;2022-12-08T06:01:58;2.30;99.90
8633;DHT22;4354;49.832;10.746;2022-12-08T06:04:25;2.30;99.90
8633;DHT22;4354;49.832;10.746;2022-12-08T06:06:52;2.30;99.90
8633;DHT22;4354;49.832;10.746;2022-12-08T06:09:19;2.30;99.90
8633;DHT22;4354;49.832;10.746;2022-12-08T06:11:45;2.30;99.90
8633;DHT22;4354;49.832;10.746;2022-12-08T06:14:12;2.30;99.90
8633;DHT22;4354;49.832;10.746;2022-12-08T06:16:39;2.30;99.90
8633;DHT22;4354;49.832;10.746;2022-12-08T06:19:06;2.30;99.90
8633;DHT22;4354;49.832;10.746;2022-12-08T06:21:33;2.30;99.90
8633;DHT22;4354;49.832;10.746;2022-12-08T06:24:00;2.30;99.90
8633;DHT22;4354;49.832;10.746;2022-12-08T06:26:27;2.20;99.90
8633;DHT22;4354;49.832;10.746;2022-12-08T06:28:54;2.20;99.90
8633;DHT22;4354;49.832;10.746;2022-12-08T06:31:25;2.20;99.90
8633;DHT22;4354;49.832;10.746;2022-12-08T06:33:53;2.20;99.90
8633;DHT22;4354;49.832;10.746;2022-12-08T06:36:23;2.20;99.90
8633;DHT22;4354;49.832;10.746;2022-12-08T06:38:50;2.20;99.90
8633;DHT22;4354;49.832;10.746;2022-12-08T06:41:17;2.20;99.90
8633;DHT22;4354;49.832;10.746;2022-12-08T06:43:44;2.20;99.90
8633;DHT22;4354;49.832;10.746;2022-12-08T06:46:16;2.20;99.90
8633;DHT22;4354;49.832;10.746;2022-12-08T06:48:43;2.20;99.90
8633;DHT22;4354;49.832;10.746;2022-12-08T06:51:13;2.20;99.90
8633;DHT22;4354;49.832;10.746;2022-12-08T06:53:41;2.20;99.90
8633;DHT22;4354;49.832;10.746;2022-12-08T06:56:08;2.20;99.90
8633;DHT22;4354;49.832;10.746;2022-12-08T06:58:35;2.20;99.90
8633;DHT22;4354;49.832;10.746;2022-12-08T07:01:12;2.20;99.90
8633;DHT22;4354;49.832;10.746;2022-12-08T07:03:39;2.20;99.90
8633;DHT22;4354;49.832;10.746;2022-12-08T07:06:17;2.10;99.90
8633;DHT22;4354;49.832;10.746;2022-12-08T07:08:45;2.20;99.90
8633;DHT22;4354;49.832;10.746;2022-12-08T07:11:12;2.10;99.90
8633;DHT22;4354;49.832;10.746;2022-12-08T07:13:46;2.10;99.90
8633;DHT22;4354;49.832;10.746;2022-12-08T07:16:13;2.10;99.90
8633;DHT22;4354;49.832;10.746;2022-12-08T07:18:40;2.10;99.90
8633;DHT22;4354;49.832;10.746;2022-12-08T07:21:12;2.10;99.90
8633;DHT22;4354;49.832;10.746;2022-12-08T07:23:41;2.10;99.90
8633;DHT22;4354;49.832;10.746;2022-12-08T07:26:11;2.10;99.90
8633;DHT22;4354;49.832;10.746;2022-12-08T07:28:39;2.20;99.90
8633;DHT22;4354;49.832;10.746;2022-12-08T07:31:14;2.20;99.90
8633;DHT22;4354;49.832;10.746;2022-12-08T07:33:42;2.20;99.90
8633;DHT22;4354;49.832;10.746;2022-12-08T07:36:09;2.20;99.90
8633;DHT22;4354;49.832;10.746;2022-12-08T07:38:36;2.30;99.90
8633;DHT22;4354;49.832;10.746;2022-12-08T07:41:03;2.30;99.90
8633;DHT22;4354;49.832;10.746;2022-12-08T07:43:30;2.30;99.90
8633;DHT22;4354;49.832;10.746;2022-12-08T07:45:56;2.30;99.90
8633;DHT22;4354;49.832;10.746;2022-12-08T07:48:23;2.30;99.90
8633;DHT22;4354;49.832;10.746;2022-12-08T07:50:50;2.30;99.90
8633;DHT22;4354;49.832;10.746;2022-12-08T07:53:17;2.30;99.90
8633;DHT22;4354;49.832;10.746;2022-12-08T07:55:44;2.30;99.90
8633;DHT22;4354;49.832;10.746;2022-12-08T07:58:10;2.30;99.90
8633;DHT22;4354;49.832;10.746;2022-12-08T08:00:37;2.40;99.90
8633;DHT22;4354;49.832;10.746;2022-12-08T08:03:04;2.40;99.90
8633;DHT22;4354;49.832;10.746;2022-12-08T08:05:32;2.40;99.90
8633;DHT22;4354;49.832;10.746;2022-12-08T08:07:58;2.40;99.90
8633;DHT22;4354;49.832;10.746;2022-12-08T08:10:25;2.50;99.90
8633;DHT22;4354;49.832;10.746;2022-12-08T08:12:52;2.50;99.90
8633;DHT22;4354;49.832;10.746;2022-12-08T08:15:19;2.50;99.90
8633;DHT22;4354;49.832;10.746;2022-12-08T08:17:50;2.50;99.90
8633;DHT22;4354;49.832;10.746;2022-12-08T08:20:18;2.60;99.90
8633;DHT22;4354;49.832;10.746;2022-12-08T08:22:48;2.60;99.90
8633;DHT22;4354;49.832;10.746;2022-12-08T08:25:16;2.60;99.90
8633;DHT22;4354;49.832;10.746;2022-12-08T08:27:43;2.70;99.90
8633;DHT22;4354;49.832;10.746;2022-12-08T08:30:11;2.70;99.90
8633;DHT22;4354;49.832;10.746;2022-12-08T08:32:46;2.80;99.90
8633;DHT22;4354;49.832;10.746;2022-12-08T08:35:13;2.80;99.90
8633;DHT22;4354;49.832;10.746;2022-12-08T08:37:40;2.80;99.90
8633;DHT22;4354;49.832;10.746;2022-12-08T08:40:14;2.90;99.90
8633;DHT22;4354;49.832;10.746;2022-12-08T08:42:41;2.90;99.90
8633;DHT22;4354;49.832;10.746;2022-12-08T08:45:08;2.90;99.90
8633;DHT22;4354;49.832;10.746;2022-12-08T08:47:34;2.90;99.90
8633;DHT22;4354;49.832;10.746;2022-12-08T08:50:01;2.90;99.90
8633;DHT22;4354;49.832;10.746;2022-12-08T08:52:28;2.90;99.90
8633;DHT22;4354;49.832;10.746;2022-12-08T08:54:55;3.00;99.90
8633;DHT22;4354;49.832;10.746;2022-12-08T08:57:22;3.00;99.90
8633;DHT22;4354;49.832;10.746;2022-12-08T08:59:52;3.00;99.90
8633;DHT22;4354;49.832;10.746;2022-12-08T09:02:19;3.00;99.90
8633;DHT22;4354;49.832;10.746;2022-12-08T09:04:47;3.00;99.90
8633;DHT22;4354;49.832;10.746;2022-12-08T09:07:14;3.10;99.90
8633;DHT22;4354;49.832;10.746;2022-12-08T09:09:41;3.00;99.90
8633;DHT22;4354;49.832;10.746;2022-12-08T09:12:09;3.00;99.90
8633;DHT22;4354;49.832;10.746;2022-12-08T09:14:35;3.00;99.90
8633;DHT22;4354;49.832;10.746;2022-12-08T09:17:03;3.00;99.90
8633;DHT22;4354;49.832;10.746;2022-12-08T09:19:30;3.00;99.90
8633;DHT22;4354;49.832;10.746;2022-12-08T09:21:56;3.00;99.90
8633;DHT22;4354;49.832;10.746;2022-12-08T09:24:23;3.10;99.90
8633;DHT22;4354;49.832;10.746;2022-12-08T09:26:50;3.20;99.90
8633;DHT22;4354;49.832;10.746;2022-12-08T09:29:17;3.20;99.90
8633;DHT22;4354;49.832;10.746;2022-12-08T09:31:44;3.30;99.90
8633;DHT22;4354;49.832;10.746;2022-12-08T09:34:11;3.40;99.90
8633;DHT22;4354;49.832;10.746;2022-12-08T09:36:38;3.40;99.90
8633;DHT22;4354;49.832;10.746;2022-12-08T09:39:06;3.30;99.90
8633;DHT22;4354;49.832;10.746;2022-12-08T09:42:00;3.40;99.90
8633;DHT22;4354;49.832;10.746;2022-12-08T09:44:54;3.30;99.90
8633;DHT22;4354;49.832;10.746;2022-12-08T09:47:36;3.40;99.90
8633;DHT22;4354;49.832;10.746;2022-12-08T09:50:30;3.40;99.90
8633;DHT22;4354;49.832;10.746;2022-12-08T09:53:08;3.40;99.90
8633;DHT22;4354;49.832;10.746;2022-12-08T09:55:49;3.30;99.90
8633;DHT22;4354;49.832;10.746;2022-12-08T09:58:28;3.30;99.90
8633;DHT22;4354;49.832;10.746;2022-12-08T10:00:58;3.30;99.90
8633;DHT22;4354;49.832;10.746;2022-12-08T10:03:27;3.30;99.90
8633;DHT22;4354;49.832;10.746;2022-12-08T10:06:20;3.40;99.90
8633;DHT22;4354;49.832;10.746;2022-12-08T10:16:48;3.60;99.90
8633;DHT22;4354;49.832;10.746;2022-12-08T10:19:21;3.60;99.90
8633;DHT22;4354;49.832;10.746;2022-12-08T10:21:49;3.70;99.90
8633;DHT22;4354;49.832;10.746;2022-12-08T10:26:49;3.70;99.90
8633;DHT22;4354;49.832;10.746;2022-12-08T10:29:16;3.70;99.90
8633;DHT22;4354;49.832;10.746;2022-12-08T10:31:45;3.70;99.90
8633;DHT22;4354;49.832;10.746;2022-12-08T10:34:21;3.70;99.90
8633;DHT22;4354;49.832;10.746;2022-12-08T10:36:56;3.70;99.90
8633;DHT22;4354;49.832;10.746;2022-12-08T10:45:02;3.60;99.90
8633;DHT22;4354;49.832;10.746;2022-12-08T10:47:34;3.50;99.90
8633;DHT22;4354;49.832;10.746;2022-12-08T10:50:35;3.60;99.90
8633;DHT22;4354;49.832;10.746;2022-12-08T10:56:18;3.60;99.90
8633;DHT22;4354;49.832;10.746;2022-12-08T10:58:40;3.70;99.90
8633;DHT22;4354;49.832;10.746;2022-12-08T11:06:25;3.60;99.90
8633;DHT22;4354;49.832;10.746;2022-12-08T11:08:58;3.70;99.90
8633;DHT22;4354;49.832;10.746;2022-12-08T11:14:26;3.60;99.90
8633;DHT22;4354;49.832;10.746;2022-12-08T11:17:04;3.60;99.90
8633;DHT22;4354;49.832;10.746;2022-12-08T11:19:39;3.70;99.90
8633;DHT22;4354;49.832;10.746;2022-12-08T11:24:57;3.70;99.90
8633;DHT22;4354;49.832;10.746;2022-12-08T11:27:24;3.70;99.90
8633;DHT22;4354;49.832;10.746;2022-12-08T11:29:51;3.90;99.90
8633;DHT22;4354;49.832;10.746;2022-12-08T11:32:18;4.10;99.90
8633;DHT22;4354;49.832;10.746;2022-12-08T11:34:49;4.00;99.90
8633;DHT22;4354;49.832;10.746;2022-12-08T11:37:43;4.10;99.90
8633;DHT22;4354;49.832;10.746;2022-12-08T11:40:45;4.10;99.90
8633;DHT22;4354;49.832;10.746;2022-12-08T11:43:28;4.00;99.90
8633;DHT22;4354;49.832;10.746;2022-12-08T11:46:01;4.00;99.90
8633;DHT22;4354;49.832;10.746;2022-12-08T11:48:56;4.00;99.90
8633;DHT22;4354;49.832;10.746;2022-12-08T11:51:44;4.20;99.90
8633;DHT22;4354;49.832;10.746;2022-12-08T11:54:21;4.40;99.90
8633;DHT22;4354;49.832;10.746;2022-12-08T11:56:55;4.40;99.90
8633;DHT22;4354;49.832;10.746;2022-12-08T11:59:30;4.50;99.90
8633;DHT22;4354;49.832;10.746;2022-12-08T12:01:59;4.50;99.90
8633;DHT22;4354;49.832;10.746;2022-12-08T12:20:35;4.50;99.90
8633;DHT22;4354;49.832;10.746;2022-12-08T12:23:22;4.60;99.90
8633;DHT22;4354;49.832;10.746;2022-12-08T12:26:00;4.60;99.90
8633;DHT22;4354;49.832;10.746;2022-12-08T12:28:43;4.60;99.90
8633;DHT22;4354;49.832;10.746;2022-12-08T12:31:15;4.60;99.90
8633;DHT22;4354;49.832;10.746;2022-12-08T12:33:45;4.50;99.90
8633;DHT22;4354;49.832;10.746;2022-12-08T12:36:14;4.50;99.90
8633;DHT22;4354;49.832;10.746;2022-12-08T12:38:52;4.50;99.90
8633;DHT22;4354;49.832;10.746;2022-12-08T12:41:53;4.40;99.90
8633;DHT22;4354;49.832;10.746;2022-12-08T12:54:35;4.40;99.90
8633;DHT22;4354;49.832;10.746;2022-12-08T12:59:40;4.40;99.90
8633;DHT22;4354;49.832;10.746;2022-12-08T13:02:32;4.40;99.90
8633;DHT22;4354;49.832;10.746;2022-12-08T13:05:15;4.40;99.90
8633;DHT22;4354;49.832;10.746;2022-12-08T13:12:42;4.10;99.90
8633;DHT22;4354;49.832;10.746;2022-12-08T13:15:19;4.10;99.90
8633;DHT22;4354;49.832;10.746;2022-12-08T13:17:47;4.10;99.90
8633;DHT22;4354;49.832;10.746;2022-12-08T13:20:20;4.00;99.90
8633;DHT22;4354;49.832;10.746;2022-12-08T13:25:43;3.90;99.90
8633;DHT22;4354;49.832;10.746;2022-12-08T13:28:26;3.80;99.90
8633;DHT22;4354;49.832;10.746;2022-12-08T13:30:58;3.80;99.90
8633;DHT22;4354;49.832;10.746;2022-12-08T13:33:37;3.80;99.90
8633;DHT22;4354;49.832;10.746;2022-12-08T13:38:42;3.90;99.90
8633;DHT22;4354;49.832;10.746;2022-12-08T13:41:21;3.80;99.90
8633;DHT22;4354;49.832;10.746;2022-12-08T13:43:53;3.80;99.90
8633;DHT22;4354;49.832;10.746;2022-12-08T13:46:48;3.80;99.90
8633;DHT22;4354;49.832;10.746;2022-12-08T13:49:40;3.80;99.90
8633;DHT22;4354;49.832;10.746;2022-12-08T13:52:35;3.90;99.90
8633;DHT22;4354;49.832;10.746;2022-12-08T13:55:58;3.80;99.90
8633;DHT22;4354;49.832;10.746;2022-12-08T13:58:45;3.80;99.90
8633;DHT22;4354;49.832;10.746;2022-12-08T14:01:18;3.80;99.90
8633;DHT22;4354;49.832;10.746;2022-12-08T14:03:55;3.70;99.90
8633;DHT22;4354;49.832;10.746;2022-12-08T14:06:45;3.70;99.90
8633;DHT22;4354;49.832;10.746;2022-12-08T14:09:19;3.70;99.90
8633;DHT22;4354;49.832;10.746;2022-12-08T14:11:59;3.60;99.90
8633;DHT22;4354;49.832;10.746;2022-12-08T14:14:37;3.60;99.90
8633;DHT22;4354;49.832;10.746;2022-12-08T14:17:25;3.60;99.90
8633;DHT22;4354;49.832;10.746;2022-12-08T14:20:19;3.50;99.90
8633;DHT22;4354;49.832;10.746;2022-12-08T14:22:47;3.50;99.90
8633;DHT22;4354;49.832;10.746;2022-12-08T14:25:17;3.50;99.90
8633;DHT22;4354;49.832;10.746;2022-12-08T14:27:44;3.50;99.90
8633;DHT22;4354;49.832;10.746;2022-12-08T14:30:15;3.50;99.90
8633;DHT22;4354;49.832;10.746;2022-12-08T14:35:34;3.50;99.90
8633;DHT22;4354;49.832;10.746;2022-12-08T14:38:04;3.50;99.90
8633;DHT22;4354;49.832;10.746;2022-12-08T14:40:36;3.50;99.90
8633;DHT22;4354;49.832;10.746;2022-12-08T14:45:45;3.40;99.90
8633;DHT22;4354;49.832;10.746;2022-12-08T14:48:40;3.50;99.90
8633;DHT22;4354;49.832;10.746;2022-12-08T14:54:03;3.40;99.90
8633;DHT22;4354;49.832;10.746;2022-12-08T15:01:45;3.30;99.90
8633;DHT22;4354;49.832;10.746;2022-12-08T15:09:17;3.20;99.90
8633;DHT22;4354;49.832;10.746;2022-12-08T15:15:12;3.20;99.90
8633;DHT22;4354;49.832;10.746;2022-12-08T15:17:33;3.20;99.90
8633;DHT22;4354;49.832;10.746;2022-12-08T15:20:01;3.20;99.90
8633;DHT22;4354;49.832;10.746;2022-12-08T15:22:30;3.20;99.90
8633;DHT22;4354;49.832;10.746;2022-12-08T15:24:57;3.10;99.90
8633;DHT22;4354;49.832;10.746;2022-12-08T15:27:24;3.10;99.90
8633;DHT22;4354;49.832;10.746;2022-12-08T15:29:52;3.10;99.90
8633;DHT22;4354;49.832;10.746;2022-12-08T15:32:21;3.10;99.90
8633;DHT22;4354;49.832;10.746;2022-12-08T15:34:48;3.10;99.90
8633;DHT22;4354;49.832;10.746;2022-12-08T15:37:23;3.10;99.90
8633;DHT22;4354;49.832;10.746;2022-12-08T15:39:51;3.10;99.90
8633;DHT22;4354;49.832;10.746;2022-12-08T15:42:18;3.10;99.90
8633;DHT22;4354;49.832;10.746;2022-12-08T15:44:45;3.10;99.90
8633;DHT22;4354;49.832;10.746;2022-12-08T15:47:20;3.00;99.90
8633;DHT22;4354;49.832;10.746;2022-12-08T15:49:49;3.00;99.90
8633;DHT22;4354;49.832;10.746;2022-12-08T15:52:18;3.00;99.90
8633;DHT22;4354;49.832;10.746;2022-12-08T15:54:45;3.00;99.90
8633;DHT22;4354;49.832;10.746;2022-12-08T15:57:31;3.00;99.90
8633;DHT22;4354;49.832;10.746;2022-12-08T16:03:18;2.90;99.90
8633;DHT22;4354;49.832;10.746;2022-12-08T16:06:11;2.90;99.90
8633;DHT22;4354;49.832;10.746;2022-12-08T16:09:01;2.90;99.90
8633;DHT22;4354;49.832;10.746;2022-12-08T16:11:38;2.80;99.90
8633;DHT22;4354;49.832;10.746;2022-12-08T16:14:36;2.80;99.90
8633;DHT22;4354;49.832;10.746;2022-12-08T16:17:23;2.90;99.90
8633;DHT22;4354;49.832;10.746;2022-12-08T16:19:50;2.80;99.90
8633;DHT22;4354;49.832;10.746;2022-12-08T16:22:23;2.80;99.90
8633;DHT22;4354;49.832;10.746;2022-12-08T16:25:10;2.70;99.90
8633;DHT22;4354;49.832;10.746;2022-12-08T16:27:53;2.70;99.90
8633;DHT22;4354;49.832;10.746;2022-12-08T16:30:40;2.70;99.90
8633;DHT22;4354;49.832;10.746;2022-12-08T16:33:09;2.70;99.90
8633;DHT22;4354;49.832;10.746;2022-12-08T16:35:37;2.70;99.90
8633;DHT22;4354;49.832;10.746;2022-12-08T16:38:04;2.60;99.90
8633;DHT22;4354;49.832;10.746;2022-12-08T16:40:31;2.50;99.90
8633;DHT22;4354;49.832;10.746;2022-12-08T16:42:57;2.50;99.90
8633;DHT22;4354;49.832;10.746;2022-12-08T16:45:26;2.40;99.90
8633;DHT22;4354;49.832;10.746;2022-12-08T16:47:58;2.40;99.90
8633;DHT22;4354;49.832;10.746;2022-12-08T16:50:28;2.40;99.90
8633;DHT22;4354;49.832;10.746;2022-12-08T16:53:04;2.40;99.90
8633;DHT22;4354;49.832;10.746;2022-12-08T16:55:31;2.30;99.90
8633;DHT22;4354;49.832;10.746;2022-12-08T16:57:58;2.30;99.90
8633;DHT22;4354;49.832;10.746;2022-12-08T17:00:27;2.30;99.90
8633;DHT22;4354;49.832;10.746;2022-12-08T17:02:55;2.30;99.90
8633;DHT22;4354;49.832;10.746;2022-12-08T17:05:24;2.20;99.90
8633;DHT22;4354;49.832;10.746;2022-12-08T17:07:52;2.20;99.90
8633;DHT22;4354;49.832;10.746;2022-12-08T17:10:24;2.20;99.90
8633;DHT22;4354;49.832;10.746;2022-12-08T17:12:52;2.20;99.90
8633;DHT22;4354;49.832;10.746;2022-12-08T17:15:21;2.10;99.90
8633;DHT22;4354;49.832;10.746;2022-12-08T17:17:48;2.00;99.90
8633;DHT22;4354;49.832;10.746;2022-12-08T17:20:21;1.90;99.90
8633;DHT22;4354;49.832;10.746;2022-12-08T17:22:49;1.70;99.90
8633;DHT22;4354;49.832;10.746;2022-12-08T17:25:15;1.50;99.90
8633;DHT22;4354;49.832;10.746;2022-12-08T17:27:42;1.40;99.90
8633;DHT22;4354;49.832;10.746;2022-12-08T17:30:10;1.20;99.90
8633;DHT22;4354;49.832;10.746;2022-12-08T17:32:41;1.00;99.90
8633;DHT22;4354;49.832;10.746;2022-12-08T17:35:09;0.90;99.90
8633;DHT22;4354;49.832;10.746;2022-12-08T17:37:36;0.80;99.90
8633;DHT22;4354;49.832;10.746;2022-12-08T17:40:03;0.70;99.90
8633;DHT22;4354;49.832;10.746;2022-12-08T17:42:30;0.70;99.90
8633;DHT22;4354;49.832;10.746;2022-12-08T17:44:57;0.60;99.90
8633;DHT22;4354;49.832;10.746;2022-12-08T17:47:24;0.50;99.90
8633;DHT22;4354;49.832;10.746;2022-12-08T17:49:50;0.40;99.90
8633;DHT22;4354;49.832;10.746;2022-12-08T17:52:17;0.40;99.90
8633;DHT22;4354;49.832;10.746;2022-12-08T17:54:44;0.30;99.90
8633;DHT22;4354;49.832;10.746;2022-12-08T17:57:11;0.30;99.90
8633;DHT22;4354;49.832;10.746;2022-12-08T17:59:38;0.20;99.90
8633;DHT22;4354;49.832;10.746;2022-12-08T18:02:04;0.20;99.90
8633;DHT22;4354;49.832;10.746;2022-12-08T18:04:32;0.20;99.90
8633;DHT22;4354;49.832;10.746;2022-12-08T18:06:58;0.20;99.90
8633;DHT22;4354;49.832;10.746;2022-12-08T18:09:29;0.20;99.90
8633;DHT22;4354;49.832;10.746;2022-12-08T18:11:56;0.10;99.90
8633;DHT22;4354;49.832;10.746;2022-12-08T18:14:25;0.10;99.90
8633;DHT22;4354;49.832;10.746;2022-12-08T18:16:51;0.10;99.90
8633;DHT22;4354;49.832;10.746;2022-12-08T18:19:18;0.00;99.90
8633;DHT22;4354;49.832;10.746;2022-12-08T18:21:45;-0.10;99.90
8633;DHT22;4354;49.832;10.746;2022-12-08T18:24:17;-0.20;99.90